createdAt,value
2018-09-25T00:02:07.788Z,11.40
2018-09-25T00:06:17.325Z,11.40
2018-09-25T00:10:26.904Z,11.40
2018-09-25T00:14:36.318Z,11.40
2018-09-25T00:18:46.186Z,11.40
2018-09-25T00:22:55.813Z,11.30
2018-09-25T00:27:05.460Z,11.30
2018-09-25T00:31:14.980Z,11.30
2018-09-25T00:35:24.549Z,11.20
2018-09-25T00:39:34.027Z,11.20
2018-09-25T00:43:43.534Z,11.20
2018-09-25T00:47:53.246Z,11.20
2018-09-25T00:52:02.543Z,11.20
2018-09-25T00:56:12.067Z,11.20
2018-09-25T01:00:21.633Z,11.30
2018-09-25T01:04:31.337Z,11.20
2018-09-25T01:08:40.929Z,11.20
2018-09-25T01:12:50.808Z,11.20
2018-09-25T01:17:00.582Z,11.10
2018-09-25T01:21:11.074Z,11.10
2018-09-25T01:25:20.513Z,11.10
2018-09-25T01:29:31.163Z,11.00
2018-09-25T01:33:40.757Z,10.90
2018-09-25T01:37:50.224Z,10.80
2018-09-25T01:41:59.574Z,10.80
2018-09-25T01:46:09.139Z,10.70
2018-09-25T01:50:18.580Z,10.60
2018-09-25T01:54:28.117Z,10.60
2018-09-25T01:58:38.670Z,10.60
2018-09-25T02:02:48.738Z,10.60
2018-09-25T02:06:58.348Z,10.60
2018-09-25T02:11:07.669Z,10.60
2018-09-25T02:15:17.174Z,10.60
2018-09-25T02:19:26.506Z,10.50
2018-09-25T02:23:35.950Z,10.50
2018-09-25T02:27:45.517Z,10.50
2018-09-25T02:31:55.083Z,10.30
2018-09-25T02:36:13.433Z,10.20
2018-09-25T02:40:22.993Z,10.20
2018-09-25T02:44:32.475Z,10.20
2018-09-25T02:48:42.104Z,10.20
2018-09-25T02:52:51.682Z,10.20
2018-09-25T02:57:01.174Z,10.20
2018-09-25T03:01:10.639Z,10.20
2018-09-25T03:05:20.165Z,10.30
2018-09-25T03:09:29.708Z,10.30
2018-09-25T03:13:39.215Z,10.20
2018-09-25T03:17:48.687Z,10.20
2018-09-25T03:21:58.227Z,10.10
2018-09-25T03:26:07.656Z,10.20
2018-09-25T03:30:17.051Z,10.10
2018-09-25T03:34:26.390Z,10.20
2018-09-25T03:38:35.907Z,10.20
2018-09-25T03:42:45.487Z,10.20
2018-09-25T03:46:55.139Z,10.30
2018-09-25T03:51:04.691Z,10.30
2018-09-25T03:55:14.372Z,10.40
2018-09-25T03:59:23.950Z,10.40
2018-09-25T04:03:33.651Z,10.40
2018-09-25T04:07:43.143Z,10.50
2018-09-25T04:11:52.908Z,10.50
2018-09-25T04:16:02.348Z,10.50
2018-09-25T04:20:11.709Z,10.50
2018-09-25T04:24:21.393Z,10.60
2018-09-25T04:28:30.816Z,10.60
2018-09-25T04:32:40.520Z,10.60
2018-09-25T04:36:58.499Z,10.50
2018-09-25T04:41:11.083Z,10.60
2018-09-25T04:45:20.545Z,10.70
2018-09-25T04:49:30.403Z,10.50
2018-09-25T04:53:40.226Z,10.50
2018-09-25T04:57:49.975Z,10.20
2018-09-25T05:01:59.519Z,10.10
2018-09-25T05:06:09.002Z,10.50
2018-09-25T05:19:00.479Z,10.60
2018-09-25T05:23:09.825Z,10.70
2018-09-25T05:27:19.419Z,10.50
2018-09-25T05:31:29.026Z,10.60
2018-09-25T05:35:38.494Z,10.80
2018-09-25T05:39:48.406Z,10.70
2018-09-25T05:43:57.945Z,10.90
2018-09-25T05:48:07.537Z,11.30
2018-09-25T05:52:17.122Z,11.40
2018-09-25T05:56:26.552Z,11.00
2018-09-25T06:00:36.094Z,11.20
2018-09-25T06:04:45.577Z,11.30
2018-09-25T06:08:56.036Z,11.40
2018-09-25T06:13:05.871Z,11.60
2018-09-25T06:17:15.403Z,11.60
2018-09-25T06:21:24.971Z,11.80
2018-09-25T06:25:34.367Z,12.00
2018-09-25T06:29:43.887Z,12.10
2018-09-25T06:33:53.459Z,12.20
2018-09-25T06:38:02.870Z,12.30
2018-09-25T06:42:12.416Z,12.20
2018-09-25T06:46:22.122Z,12.50
2018-09-25T06:50:31.550Z,12.80
2018-09-25T06:54:41.125Z,12.90
2018-09-25T06:58:50.568Z,13.40
2018-09-25T07:03:00.096Z,13.80
2018-09-25T07:07:09.656Z,14.10
2018-09-25T07:11:19.431Z,14.30
2018-09-25T07:15:29.048Z,14.40
2018-09-25T07:19:38.653Z,14.80
2018-09-25T07:23:48.223Z,15.00
2018-09-25T07:27:57.801Z,15.10
2018-09-25T07:32:07.203Z,15.50
2018-09-25T07:36:16.812Z,15.90
2018-09-25T07:40:26.324Z,16.00
2018-09-25T07:44:35.807Z,16.30
2018-09-25T07:48:45.273Z,16.10
2018-09-25T07:52:55.942Z,16.30
2018-09-25T07:57:05.485Z,16.50
2018-09-25T08:01:15.187Z,16.80
2018-09-25T08:05:24.983Z,17.10
2018-09-25T08:09:34.623Z,17.50
2018-09-25T08:13:44.348Z,17.90
2018-09-25T08:17:53.994Z,18.30
2018-09-25T08:22:03.537Z,18.00
2018-09-25T08:26:13.188Z,18.30
2018-09-25T08:30:22.798Z,18.90
2018-09-25T08:34:32.244Z,18.60
2018-09-25T08:38:41.767Z,18.80
2018-09-25T08:42:51.383Z,18.70
2018-09-25T08:47:01.106Z,18.50
2018-09-25T08:51:11.608Z,18.90
2018-09-25T08:55:21.135Z,19.30
2018-09-25T08:59:30.687Z,19.40
2018-09-25T09:03:40.160Z,19.40
2018-09-25T09:07:49.938Z,22.30
2018-09-25T09:11:59.526Z,24.10
2018-09-25T09:16:08.963Z,25.80
2018-09-25T09:20:18.463Z,25.70
2018-09-25T09:24:27.951Z,26.50
2018-09-25T09:28:37.549Z,22.50
2018-09-25T09:32:47.598Z,25.70
2018-09-25T09:36:57.191Z,26.10
2018-09-25T09:41:07.808Z,26.50
2018-09-25T09:45:18.882Z,26.60
2018-09-25T09:49:28.725Z,24.00
2018-09-25T09:53:38.072Z,21.80
2018-09-25T09:57:49.144Z,20.50
2018-09-25T10:01:58.696Z,20.10
2018-09-25T10:06:08.433Z,19.70
2018-09-25T10:10:18.227Z,19.40
2018-09-25T10:14:27.758Z,19.30
2018-09-25T10:18:37.168Z,19.30
2018-09-25T10:22:46.967Z,19.40
2018-09-25T10:26:56.411Z,19.10
2018-09-25T10:31:05.726Z,19.10
2018-09-25T10:35:15.392Z,19.00
2018-09-25T10:39:25.052Z,19.10
2018-09-25T10:43:34.461Z,18.90
2018-09-25T10:47:43.903Z,18.80
2018-09-25T10:51:53.343Z,18.70
2018-09-25T10:56:03.032Z,18.70
2018-09-25T11:00:12.585Z,18.50
2018-09-25T11:04:21.932Z,18.50
2018-09-25T11:08:31.410Z,18.10
2018-09-25T11:12:40.882Z,18.10
2018-09-25T11:16:50.608Z,18.20
2018-09-25T11:21:00.106Z,18.20
2018-09-25T11:25:09.696Z,18.00
2018-09-25T11:29:20.333Z,18.00
2018-09-25T11:33:29.638Z,18.10
2018-09-25T11:37:39.115Z,17.80
2018-09-25T11:41:48.885Z,17.80
2018-09-25T11:45:58.509Z,17.30
2018-09-25T11:50:08.126Z,17.30
2018-09-25T11:54:17.739Z,17.40
2018-09-25T11:58:27.151Z,17.40
2018-09-25T12:02:36.663Z,17.40
2018-09-25T12:06:46.047Z,17.20
2018-09-25T12:10:55.611Z,17.20
2018-09-25T12:15:05.082Z,17.20
2018-09-25T12:19:14.718Z,17.30
2018-09-25T12:23:24.409Z,17.30
2018-09-25T12:27:33.783Z,17.40
2018-09-25T12:31:43.635Z,17.40
2018-09-25T12:35:53.242Z,17.50
2018-09-25T12:40:02.654Z,17.60
2018-09-25T12:44:12.217Z,17.60
2018-09-25T12:48:21.722Z,17.70
2018-09-25T12:52:31.088Z,17.60
2018-09-25T12:56:40.635Z,17.40
2018-09-25T13:00:50.053Z,17.20
2018-09-25T13:04:59.538Z,17.20
2018-09-25T13:09:09.168Z,17.10
2018-09-25T13:13:18.758Z,17.20
2018-09-25T13:17:28.226Z,17.10
2018-09-25T13:21:37.815Z,17.00
2018-09-25T13:25:47.272Z,17.00
2018-09-25T13:29:56.826Z,17.10
2018-09-25T13:34:06.363Z,16.90
2018-09-25T13:38:16.215Z,17.10
2018-09-25T13:42:25.755Z,17.10
2018-09-25T13:46:35.492Z,17.00
2018-09-25T13:50:45.012Z,17.20
2018-09-25T13:54:54.541Z,17.20
2018-09-25T13:59:03.954Z,17.20
2018-09-25T14:03:13.547Z,17.30
2018-09-25T14:07:23.154Z,17.30
2018-09-25T14:11:32.594Z,17.20
2018-09-25T14:15:42.052Z,17.20
2018-09-25T14:19:51.595Z,17.20
2018-09-25T14:24:01.058Z,17.20
2018-09-25T14:28:11.657Z,17.40
2018-09-25T14:32:21.351Z,17.40
2018-09-25T14:36:30.742Z,17.30
2018-09-25T14:40:40.064Z,17.40
2018-09-25T14:44:49.608Z,17.30
2018-09-25T14:48:59.135Z,17.30
2018-09-25T14:53:08.919Z,17.10
2018-09-25T14:57:19.205Z,17.20
2018-09-25T15:01:28.603Z,17.20
2018-09-25T15:05:38.095Z,17.10
2018-09-25T15:09:47.555Z,17.00
2018-09-25T15:13:57.114Z,17.10
2018-09-25T15:18:06.755Z,17.00
2018-09-25T15:22:16.462Z,17.00
2018-09-25T15:26:25.615Z,16.90
2018-09-25T15:30:35.978Z,16.90
2018-09-25T15:34:45.530Z,16.90
2018-09-25T15:38:55.107Z,16.90
2018-09-25T15:43:04.711Z,16.90
2018-09-25T15:47:14.147Z,16.90
2018-09-25T15:51:23.564Z,16.90
2018-09-25T15:55:33.111Z,16.80
2018-09-25T15:59:42.538Z,16.80
2018-09-25T16:03:52.195Z,16.80
2018-09-25T16:08:01.531Z,16.50
2018-09-25T16:12:12.063Z,16.60
2018-09-25T16:16:21.540Z,16.60
2018-09-25T16:20:31.013Z,16.60
2018-09-25T16:24:41.005Z,16.60
2018-09-25T16:28:50.825Z,16.60
2018-09-25T16:33:00.316Z,16.50
2018-09-25T16:37:09.920Z,16.50
2018-09-25T16:41:19.626Z,16.30
2018-09-25T16:47:14.386Z,16.20
2018-09-25T16:51:23.977Z,16.40
2018-09-25T16:55:33.463Z,16.50
2018-09-25T16:59:43.209Z,16.40
2018-09-25T17:03:53.378Z,16.40
2018-09-25T17:08:03.023Z,16.30
2018-09-25T17:12:13.004Z,16.20
2018-09-25T17:16:22.543Z,16.00
2018-09-25T17:20:32.105Z,16.00
2018-09-25T17:24:41.715Z,15.90
2018-09-25T17:28:51.555Z,15.80
2018-09-25T17:33:01.134Z,15.60
2018-09-25T17:37:10.540Z,15.60
2018-09-25T17:41:20.036Z,15.60
2018-09-25T17:45:29.376Z,15.70
2018-09-25T17:49:38.913Z,15.80
2018-09-25T17:53:48.388Z,15.70
2018-09-25T17:57:57.843Z,15.70
2018-09-25T18:02:07.188Z,15.60
2018-09-25T18:06:16.906Z,15.30
2018-09-25T18:10:26.498Z,15.30
2018-09-25T18:14:35.961Z,15.10
2018-09-25T18:18:45.363Z,15.00
2018-09-25T18:22:54.901Z,15.10
2018-09-25T18:27:04.522Z,15.00
2018-09-25T18:31:14.239Z,15.00
2018-09-25T18:38:24.548Z,15.10
2018-09-25T18:42:34.214Z,15.10
2018-09-25T18:46:43.700Z,15.10
2018-09-25T18:50:53.524Z,15.00
2018-09-25T18:55:03.173Z,15.00
2018-09-25T18:59:12.737Z,14.90
2018-09-25T19:03:22.205Z,14.70
2018-09-25T19:07:31.727Z,14.50
2018-09-25T19:11:41.767Z,14.50
2018-09-25T19:15:51.463Z,14.40
2018-09-25T19:20:00.996Z,14.20
2018-09-25T19:24:10.479Z,14.30
2018-09-25T19:28:20.238Z,14.30
2018-09-25T19:32:29.549Z,14.30
2018-09-25T19:36:39.036Z,14.40
2018-09-25T19:40:48.620Z,14.20
2018-09-25T19:44:58.100Z,14.20
2018-09-25T19:49:07.516Z,14.30
2018-09-25T19:53:17.137Z,14.10
2018-09-25T19:57:26.895Z,14.10
2018-09-25T20:01:36.622Z,13.90
2018-09-25T20:05:46.167Z,14.00
2018-09-25T20:09:55.818Z,14.10
2018-09-25T20:14:05.341Z,14.20
2018-09-25T20:18:14.877Z,14.20
2018-09-25T20:22:24.403Z,14.20
2018-09-25T20:26:33.901Z,14.10
2018-09-25T20:30:43.395Z,14.10
2018-09-25T20:34:52.798Z,14.10
2018-09-25T20:39:02.690Z,14.10
2018-09-25T20:43:12.560Z,14.00
2018-09-25T20:47:22.307Z,14.00
2018-09-25T20:51:31.855Z,14.00
2018-09-25T20:55:41.133Z,14.00
2018-09-25T20:59:50.683Z,13.90
2018-09-25T21:04:00.069Z,14.00
2018-09-25T21:08:09.667Z,13.90
2018-09-25T21:12:19.299Z,13.80
2018-09-25T21:16:28.828Z,13.80
2018-09-25T21:20:38.315Z,13.80
2018-09-25T21:24:48.881Z,13.80
2018-09-25T21:28:58.168Z,13.80
2018-09-25T21:33:07.647Z,13.70
2018-09-25T21:37:17.082Z,13.70
2018-09-25T21:41:26.719Z,13.70
2018-09-25T21:45:36.959Z,13.60
2018-09-25T21:49:46.415Z,13.60
2018-09-25T21:53:55.993Z,13.60
2018-09-25T21:58:05.540Z,13.60
2018-09-25T22:02:14.904Z,13.60
2018-09-25T22:06:24.360Z,13.30
2018-09-25T22:10:33.782Z,13.30
2018-09-25T22:14:43.329Z,13.40
2018-09-25T22:18:52.811Z,13.30
2018-09-25T22:23:02.383Z,13.30
2018-09-25T22:27:11.892Z,13.30
2018-09-25T22:31:21.309Z,13.30
2018-09-25T22:35:30.719Z,13.30
2018-09-25T22:39:40.769Z,13.30
2018-09-25T22:43:50.321Z,13.30
2018-09-25T22:47:59.826Z,13.20
2018-09-25T22:52:09.292Z,13.00
2018-09-25T22:56:20.759Z,12.80
2018-09-25T23:00:30.234Z,12.80
2018-09-25T23:04:39.669Z,12.90
2018-09-25T23:08:49.230Z,13.10
2018-09-25T23:12:58.740Z,13.10
2018-09-25T23:17:08.277Z,13.10
2018-09-25T23:21:18.057Z,12.90
2018-09-25T23:25:27.410Z,12.70
2018-09-25T23:29:37.005Z,12.90
2018-09-25T23:33:46.647Z,12.90
2018-09-25T23:37:57.087Z,12.90
2018-09-25T23:42:05.687Z,12.90
2018-09-25T23:46:19.198Z,12.90
2018-09-25T23:50:26.979Z,12.80
2018-09-25T23:54:36.246Z,12.70
2018-09-25T23:58:47.741Z,12.70
